createdAt,value
2019-02-02T00:00:25.849Z,982.40
2019-02-02T00:01:25.841Z,982.36
2019-02-02T00:02:25.831Z,982.36
2019-02-02T00:03:25.823Z,982.41
2019-02-02T00:04:25.815Z,982.35
2019-02-02T00:05:25.809Z,982.33
2019-02-02T00:06:25.797Z,982.40
2019-02-02T00:07:25.789Z,982.42
2019-02-02T00:08:25.783Z,982.45
2019-02-02T00:09:25.772Z,982.44
2019-02-02T00:10:25.765Z,982.44
2019-02-02T00:11:25.759Z,982.41
2019-02-02T00:12:25.749Z,982.45
2019-02-02T00:13:25.740Z,982.38
2019-02-02T00:14:25.735Z,982.40
2019-02-02T00:15:25.723Z,982.42
2019-02-02T00:16:25.713Z,982.41
2019-02-02T00:17:25.708Z,982.41
2019-02-02T00:18:25.699Z,982.40
2019-02-02T00:19:25.689Z,982.35
2019-02-02T00:20:25.681Z,982.33
2019-02-02T00:21:25.674Z,982.23
2019-02-02T00:22:25.666Z,982.23
2019-02-02T00:23:25.656Z,982.22
2019-02-02T00:24:25.649Z,982.22
2019-02-02T00:25:25.640Z,982.23
2019-02-02T00:26:25.630Z,982.26
2019-02-02T00:27:25.623Z,982.28
2019-02-02T00:28:25.614Z,982.28
2019-02-02T00:29:25.607Z,982.25
2019-02-02T00:30:25.618Z,982.29
2019-02-02T00:31:25.589Z,982.30
2019-02-02T00:32:25.583Z,982.32
2019-02-02T00:33:25.574Z,982.35
2019-02-02T00:34:25.566Z,982.37
2019-02-02T00:35:25.558Z,982.31
2019-02-02T00:36:25.549Z,982.25
2019-02-02T00:37:25.543Z,982.28
2019-02-02T00:38:25.533Z,982.27
2019-02-02T00:39:25.523Z,982.23
2019-02-02T00:40:25.517Z,982.24
2019-02-02T00:41:25.508Z,982.25
2019-02-02T00:42:25.500Z,982.29
2019-02-02T00:43:25.492Z,982.29
2019-02-02T00:44:25.482Z,982.31
2019-02-02T00:45:25.476Z,982.28
2019-02-02T00:46:25.467Z,982.31
2019-02-02T00:47:25.460Z,982.25
2019-02-02T00:48:25.458Z,982.17
2019-02-02T00:49:25.446Z,982.14
2019-02-02T00:50:25.434Z,982.12
2019-02-02T00:51:25.427Z,982.13
2019-02-02T00:52:25.417Z,982.12
2019-02-02T00:53:25.410Z,982.11
2019-02-02T00:54:25.403Z,982.11
2019-02-02T00:55:25.393Z,982.10
2019-02-02T00:56:25.388Z,982.14
2019-02-02T00:57:25.451Z,982.15
2019-02-02T00:58:25.368Z,982.15
2019-02-02T00:59:25.361Z,982.20
2019-02-02T01:00:25.353Z,982.21
2019-02-02T01:01:25.345Z,982.18
2019-02-02T01:02:25.340Z,982.17
2019-02-02T01:03:25.328Z,982.23
2019-02-02T01:04:25.321Z,982.26
2019-02-02T01:05:25.312Z,982.26
2019-02-02T01:06:25.304Z,982.30
2019-02-02T01:07:25.300Z,982.37
2019-02-02T01:08:25.287Z,982.35
2019-02-02T01:09:25.282Z,982.39
2019-02-02T01:10:25.273Z,982.37
2019-02-02T01:11:25.268Z,982.38
2019-02-02T01:12:25.256Z,982.35
2019-02-02T01:13:25.249Z,982.33
2019-02-02T01:14:25.240Z,982.34
2019-02-02T01:15:25.232Z,982.35
2019-02-02T01:16:25.224Z,982.36
2019-02-02T01:17:25.216Z,982.39
2019-02-02T01:18:25.207Z,982.38
2019-02-02T01:19:25.198Z,982.35
2019-02-02T01:20:25.192Z,982.41
2019-02-02T01:21:25.185Z,982.41
2019-02-02T01:22:25.176Z,982.37
2019-02-02T01:23:25.166Z,982.38
2019-02-02T01:24:25.160Z,982.38
2019-02-02T01:25:25.151Z,982.40
2019-02-02T01:26:25.145Z,982.41
2019-02-02T01:27:25.135Z,982.41
2019-02-02T01:28:25.135Z,982.44
2019-02-02T01:29:25.120Z,982.47
2019-02-02T01:30:25.115Z,982.51
2019-02-02T01:31:25.103Z,982.45
2019-02-02T01:32:25.098Z,982.39
2019-02-02T01:33:25.088Z,982.41
2019-02-02T01:34:25.080Z,982.37
2019-02-02T01:35:25.071Z,982.39
2019-02-02T01:36:25.063Z,982.38
2019-02-02T01:37:25.056Z,982.45
2019-02-02T01:38:25.047Z,982.44
2019-02-02T01:39:25.041Z,982.40
2019-02-02T01:40:25.032Z,982.44
2019-02-02T01:41:25.024Z,982.46
2019-02-02T01:42:25.015Z,982.47
2019-02-02T01:43:25.007Z,982.47
2019-02-02T01:44:24.998Z,982.49
2019-02-02T01:45:24.992Z,982.49
2019-02-02T01:46:24.983Z,982.47
2019-02-02T01:47:24.975Z,982.48
2019-02-02T01:48:24.967Z,982.47
2019-02-02T01:49:24.959Z,982.43
2019-02-02T01:50:24.972Z,982.39
2019-02-02T01:51:24.941Z,982.47
2019-02-02T01:52:24.935Z,982.41
2019-02-02T01:53:24.927Z,982.42
2019-02-02T01:54:24.919Z,982.43
2019-02-02T01:55:24.911Z,982.44
2019-02-02T01:56:24.904Z,982.38
2019-02-02T01:57:24.894Z,982.43
2019-02-02T01:58:24.886Z,982.34
2019-02-02T01:59:24.882Z,982.37
2019-02-02T02:00:24.869Z,982.30
2019-02-02T02:01:24.871Z,982.34
2019-02-02T02:02:24.855Z,982.33
2019-02-02T02:03:24.847Z,982.31
2019-02-02T02:04:24.838Z,982.30
2019-02-02T02:05:24.830Z,982.28
2019-02-02T02:06:24.822Z,982.25
2019-02-02T02:07:24.814Z,982.30
2019-02-02T02:08:24.811Z,982.28
2019-02-02T02:09:24.796Z,982.25
2019-02-02T02:10:24.791Z,982.27
2019-02-02T02:11:24.782Z,982.30
2019-02-02T02:12:24.771Z,982.30
2019-02-02T02:13:24.767Z,982.28
2019-02-02T02:14:24.757Z,982.28
2019-02-02T02:15:24.748Z,982.30
2019-02-02T02:16:24.740Z,982.27
2019-02-02T02:17:24.732Z,982.31
2019-02-02T02:18:24.726Z,982.27
2019-02-02T02:19:24.715Z,982.28
2019-02-02T02:20:24.748Z,982.28
2019-02-02T02:21:24.699Z,982.28
2019-02-02T02:22:24.691Z,982.24
2019-02-02T02:23:24.683Z,982.28
2019-02-02T02:24:24.675Z,982.27
2019-02-02T02:25:24.668Z,982.25
2019-02-02T02:26:24.659Z,982.28
2019-02-02T02:27:24.651Z,982.22
2019-02-02T02:28:28.129Z,982.20
2019-02-02T02:29:24.636Z,982.18
2019-02-02T02:30:24.631Z,982.17
2019-02-02T02:31:24.623Z,982.17
2019-02-02T02:32:24.621Z,982.16
2019-02-02T02:33:24.601Z,982.18
2019-02-02T02:34:24.594Z,982.18
2019-02-02T02:35:24.586Z,982.22
2019-02-02T02:36:24.578Z,982.24
2019-02-02T02:37:24.568Z,982.24
2019-02-02T02:38:24.561Z,982.26
2019-02-02T02:39:24.553Z,982.32
2019-02-02T02:40:24.552Z,982.29
2019-02-02T02:41:24.537Z,982.32
2019-02-02T02:42:24.529Z,982.34
2019-02-02T02:43:24.519Z,982.31
2019-02-02T02:44:24.520Z,982.38
2019-02-02T02:45:24.506Z,982.34
2019-02-02T02:46:24.500Z,982.34
2019-02-02T02:47:24.490Z,982.31
2019-02-02T02:48:24.479Z,982.34
2019-02-02T02:49:24.473Z,982.28
2019-02-02T02:50:24.472Z,982.26
2019-02-02T02:51:24.454Z,982.30
2019-02-02T02:52:24.448Z,982.29
2019-02-02T02:53:24.440Z,982.32
2019-02-02T02:54:24.433Z,982.31
2019-02-02T02:55:24.422Z,982.34
2019-02-02T02:56:24.415Z,982.30
2019-02-02T02:57:24.406Z,982.30
2019-02-02T02:58:24.397Z,982.31
2019-02-02T02:59:24.391Z,982.32
2019-02-02T03:00:24.382Z,982.31
2019-02-02T03:01:24.375Z,982.32
2019-02-02T03:02:24.367Z,982.34
2019-02-02T03:03:24.363Z,982.31
2019-02-02T03:04:24.352Z,982.33
2019-02-02T03:05:24.351Z,982.32
2019-02-02T03:06:24.334Z,982.35
2019-02-02T03:07:24.328Z,982.28
2019-02-02T03:08:24.318Z,982.25
2019-02-02T03:09:24.311Z,982.29
2019-02-02T03:10:24.303Z,982.34
2019-02-02T03:11:24.454Z,982.33
2019-02-02T03:12:24.285Z,982.32
2019-02-02T03:13:24.277Z,982.30
2019-02-02T03:14:24.270Z,982.25
2019-02-02T03:15:24.262Z,982.29
2019-02-02T03:16:24.254Z,982.29
2019-02-02T03:17:24.247Z,982.31
2019-02-02T03:18:24.239Z,982.29
2019-02-02T03:19:24.228Z,982.36
2019-02-02T03:20:24.222Z,982.32
2019-02-02T03:21:24.220Z,982.33
2019-02-02T03:22:24.208Z,982.35
2019-02-02T03:23:24.198Z,982.35
2019-02-02T03:24:24.191Z,982.38
2019-02-02T03:25:24.183Z,982.41
2019-02-02T03:26:24.174Z,982.38
2019-02-02T03:27:24.167Z,982.44
2019-02-02T03:28:24.158Z,982.44
2019-02-02T03:29:24.151Z,982.42
2019-02-02T03:30:24.156Z,982.47
2019-02-02T03:31:24.136Z,982.45
2019-02-02T03:32:24.129Z,982.46
2019-02-02T03:33:24.121Z,982.45
2019-02-02T03:34:24.113Z,982.54
2019-02-02T03:35:24.138Z,982.58
2019-02-02T03:36:24.098Z,982.57
2019-02-02T03:37:24.092Z,982.60
2019-02-02T03:38:24.081Z,982.58
2019-02-02T03:39:24.073Z,982.62
2019-02-02T03:40:24.067Z,982.63
2019-02-02T03:41:24.056Z,982.61
2019-02-02T03:42:24.049Z,982.63
2019-02-02T03:43:24.043Z,982.64
2019-02-02T03:44:24.034Z,982.64
2019-02-02T03:45:24.031Z,982.63
2019-02-02T03:46:24.020Z,982.63
2019-02-02T03:47:24.010Z,982.60
2019-02-02T03:48:24.003Z,982.57
2019-02-02T03:49:23.996Z,982.58
2019-02-02T03:50:23.992Z,982.56
2019-02-02T03:51:23.980Z,982.55
2019-02-02T03:52:23.972Z,982.57
2019-02-02T03:53:23.964Z,982.57
2019-02-02T03:54:23.958Z,982.57
2019-02-02T03:55:23.950Z,982.58
2019-02-02T03:56:23.944Z,982.61
2019-02-02T03:57:23.935Z,982.59
2019-02-02T03:58:23.946Z,982.58
2019-02-02T03:59:23.920Z,982.59
2019-02-02T04:00:23.951Z,982.59
2019-02-02T04:01:23.904Z,982.62
2019-02-02T04:02:23.899Z,982.58
2019-02-02T04:03:23.887Z,982.67
2019-02-02T04:04:23.880Z,982.59
2019-02-02T04:05:23.872Z,982.63
2019-02-02T04:06:23.866Z,982.68
2019-02-02T04:07:23.856Z,982.70
2019-02-02T04:08:23.849Z,982.70
2019-02-02T04:09:23.843Z,982.69
2019-02-02T04:10:23.836Z,982.69
2019-02-02T04:11:23.826Z,982.74
2019-02-02T04:12:23.820Z,982.71
2019-02-02T04:13:23.811Z,982.72
2019-02-02T04:14:23.805Z,982.72
2019-02-02T04:15:23.797Z,982.72
2019-02-02T04:16:23.789Z,982.75
2019-02-02T04:17:23.782Z,982.72
2019-02-02T04:18:23.774Z,982.74
2019-02-02T04:19:23.767Z,982.74
2019-02-02T04:20:23.762Z,982.76
2019-02-02T04:21:23.754Z,982.77
2019-02-02T04:22:23.742Z,982.77
2019-02-02T04:23:23.734Z,982.81
2019-02-02T04:24:23.728Z,982.79
2019-02-02T04:25:23.720Z,982.75
2019-02-02T04:26:23.713Z,982.79
2019-02-02T04:27:23.703Z,982.80
2019-02-02T04:28:23.697Z,982.77
2019-02-02T04:29:23.689Z,982.79
2019-02-02T04:30:23.683Z,982.76
2019-02-02T04:31:23.674Z,982.78
2019-02-02T04:32:23.666Z,982.81
2019-02-02T04:33:23.660Z,982.80
2019-02-02T04:34:23.656Z,982.80
2019-02-02T04:35:23.644Z,982.77
2019-02-02T04:36:23.639Z,982.81
2019-02-02T04:37:23.631Z,982.78
2019-02-02T04:38:23.622Z,982.82
2019-02-02T04:39:23.614Z,982.83
2019-02-02T04:40:23.605Z,982.82
2019-02-02T04:41:23.599Z,982.87
2019-02-02T04:42:23.592Z,982.89
2019-02-02T04:43:23.584Z,982.92
2019-02-02T04:44:23.576Z,982.90
2019-02-02T04:45:23.686Z,982.98
2019-02-02T04:46:23.562Z,982.99
2019-02-02T04:47:23.554Z,982.99
2019-02-02T04:48:23.545Z,983.03
2019-02-02T04:49:23.539Z,983.06
2019-02-02T04:50:23.532Z,983.10
2019-02-02T04:51:23.524Z,983.13
2019-02-02T04:52:23.517Z,983.14
2019-02-02T04:53:23.510Z,983.15
2019-02-02T04:54:23.600Z,983.11
2019-02-02T04:55:23.500Z,983.17
2019-02-02T04:56:23.486Z,983.25
2019-02-02T04:57:23.479Z,983.29
2019-02-02T04:58:23.473Z,983.32
2019-02-02T04:59:29.320Z,983.34
2019-02-02T05:00:23.457Z,983.42
2019-02-02T05:01:23.451Z,983.46
2019-02-02T05:02:23.444Z,983.46
2019-02-02T05:03:23.436Z,983.48
2019-02-02T05:04:23.429Z,983.49
2019-02-02T05:05:23.421Z,983.49
2019-02-02T05:06:23.414Z,983.47
2019-02-02T05:07:23.406Z,983.54
2019-02-02T05:08:23.399Z,983.50
2019-02-02T05:09:23.391Z,983.56
2019-02-02T05:10:23.385Z,983.54
2019-02-02T05:11:23.378Z,983.56
2019-02-02T05:12:23.372Z,983.55
2019-02-02T05:13:23.387Z,983.59
2019-02-02T05:14:23.355Z,983.59
2019-02-02T05:15:23.348Z,983.56
2019-02-02T05:16:23.340Z,983.57
2019-02-02T05:17:23.333Z,983.61
2019-02-02T05:18:23.326Z,983.61
2019-02-02T05:19:23.320Z,983.57
2019-02-02T05:20:23.311Z,983.60
2019-02-02T05:21:23.307Z,983.63
2019-02-02T05:22:23.299Z,983.61
2019-02-02T05:23:23.291Z,983.59
2019-02-02T05:24:23.284Z,983.62
2019-02-02T05:25:23.278Z,983.59
2019-02-02T05:26:23.272Z,983.62
2019-02-02T05:27:23.263Z,983.59
2019-02-02T05:28:23.253Z,983.65
2019-02-02T05:29:23.247Z,983.63
2019-02-02T05:30:23.242Z,983.63
2019-02-02T05:31:23.233Z,983.58
2019-02-02T05:32:23.226Z,983.61
2019-02-02T05:33:23.223Z,983.58
2019-02-02T05:34:23.213Z,983.59
2019-02-02T05:35:23.204Z,983.57
2019-02-02T05:36:23.199Z,983.55
2019-02-02T05:37:23.191Z,983.56
2019-02-02T05:38:23.183Z,983.51
2019-02-02T05:39:23.176Z,983.49
2019-02-02T05:40:23.175Z,983.50
2019-02-02T05:41:23.163Z,983.45
2019-02-02T05:42:23.157Z,983.50
2019-02-02T05:43:23.148Z,983.50
2019-02-02T05:44:23.141Z,983.49
2019-02-02T05:45:23.134Z,983.45
2019-02-02T05:46:23.128Z,983.52
2019-02-02T05:47:23.119Z,983.54
2019-02-02T05:48:23.115Z,983.54
2019-02-02T05:49:23.107Z,983.59
2019-02-02T05:50:23.100Z,983.61
2019-02-02T05:51:23.090Z,983.68
2019-02-02T05:52:23.085Z,983.71
2019-02-02T05:53:23.077Z,983.69
2019-02-02T05:54:23.070Z,983.70
2019-02-02T05:55:23.063Z,983.71
2019-02-02T05:56:23.055Z,983.72
2019-02-02T05:57:23.047Z,983.70
2019-02-02T05:58:23.041Z,983.70
2019-02-02T05:59:23.033Z,983.79
2019-02-02T06:00:23.026Z,983.80
2019-02-02T06:01:23.026Z,983.74
2019-02-02T06:02:23.013Z,983.80
2019-02-02T06:03:23.004Z,983.85
2019-02-02T06:04:22.996Z,983.85
2019-02-02T06:05:22.992Z,983.89
2019-02-02T06:06:22.984Z,983.89
2019-02-02T06:07:22.976Z,983.91
2019-02-02T06:08:22.969Z,983.94
2019-02-02T06:09:23.021Z,983.93
2019-02-02T06:10:22.955Z,983.93
2019-02-02T06:11:22.947Z,983.99
2019-02-02T06:12:22.945Z,983.97
2019-02-02T06:13:22.933Z,983.96
2019-02-02T06:14:22.925Z,984.04
2019-02-02T06:15:22.917Z,984.03
2019-02-02T06:16:22.912Z,984.05
2019-02-02T06:17:22.902Z,984.06
2019-02-02T06:18:22.897Z,984.07
2019-02-02T06:19:22.888Z,984.09
2019-02-02T06:20:22.882Z,984.06
2019-02-02T06:21:22.878Z,984.10
2019-02-02T06:22:22.868Z,984.07
2019-02-02T06:23:22.859Z,984.11
2019-02-02T06:24:22.853Z,984.12
2019-02-02T06:25:22.847Z,984.11
2019-02-02T06:26:22.837Z,984.17
2019-02-02T06:27:22.831Z,984.18
2019-02-02T06:28:22.824Z,984.18
2019-02-02T06:29:22.817Z,984.18
2019-02-02T06:30:22.810Z,984.21
2019-02-02T06:31:22.802Z,984.25
2019-02-02T06:32:22.794Z,984.25
2019-02-02T06:33:22.787Z,984.26
2019-02-02T06:34:22.781Z,984.32
2019-02-02T06:35:22.772Z,984.36
2019-02-02T06:36:22.764Z,984.34
2019-02-02T06:37:22.757Z,984.37
2019-02-02T06:38:22.750Z,984.35
2019-02-02T06:39:22.746Z,984.38
2019-02-02T06:40:22.736Z,984.41
2019-02-02T06:41:22.729Z,984.39
2019-02-02T06:42:22.722Z,984.44
2019-02-02T06:43:22.714Z,984.47
2019-02-02T06:44:22.707Z,984.41
2019-02-02T06:45:22.702Z,984.47
2019-02-02T06:46:22.691Z,984.47
2019-02-02T06:47:22.686Z,984.51
2019-02-02T06:48:22.676Z,984.49
2019-02-02T06:49:22.672Z,984.49
2019-02-02T06:50:22.663Z,984.43
2019-02-02T06:51:22.656Z,984.45
2019-02-02T06:52:22.647Z,984.42
2019-02-02T06:53:22.640Z,984.42
2019-02-02T06:54:22.632Z,984.42
2019-02-02T06:55:22.626Z,984.42
2019-02-02T06:56:22.617Z,984.41
2019-02-02T06:57:22.610Z,984.43
2019-02-02T06:58:22.601Z,984.47
2019-02-02T06:59:22.596Z,984.46
2019-02-02T07:00:22.593Z,984.42
2019-02-02T07:01:22.579Z,984.47
2019-02-02T07:02:22.571Z,984.47
2019-02-02T07:03:22.568Z,984.47
2019-02-02T07:04:22.555Z,984.45
2019-02-02T07:05:22.548Z,984.43
2019-02-02T07:06:22.541Z,984.47
2019-02-02T07:07:22.535Z,984.49
2019-02-02T07:08:22.526Z,984.47
2019-02-02T07:09:22.518Z,984.48
2019-02-02T07:10:22.511Z,984.51
2019-02-02T07:11:22.502Z,984.57
2019-02-02T07:12:22.495Z,984.56
2019-02-02T07:13:22.487Z,984.60
2019-02-02T07:14:22.480Z,984.65
2019-02-02T07:15:22.471Z,984.66
2019-02-02T07:16:22.583Z,984.69
2019-02-02T07:17:22.454Z,984.73
2019-02-02T07:18:22.448Z,984.75
2019-02-02T07:19:22.439Z,984.74
2019-02-02T07:20:22.435Z,984.69
2019-02-02T07:21:22.425Z,984.76
2019-02-02T07:22:22.416Z,984.71
2019-02-02T07:23:22.409Z,984.70
2019-02-02T07:24:22.400Z,984.69
2019-02-02T07:25:22.394Z,984.73
2019-02-02T07:26:22.394Z,984.69
2019-02-02T07:27:22.378Z,984.74
2019-02-02T07:28:22.372Z,984.74
2019-02-02T07:29:22.363Z,984.74
2019-02-02T07:30:28.801Z,984.79
2019-02-02T07:31:22.349Z,984.80
2019-02-02T07:32:22.338Z,984.80
2019-02-02T07:33:22.331Z,984.80
2019-02-02T07:34:22.324Z,984.81
2019-02-02T07:35:22.316Z,984.84
2019-02-02T07:36:22.307Z,984.84
2019-02-02T07:37:22.302Z,984.89
2019-02-02T07:38:22.293Z,984.91
2019-02-02T07:39:22.283Z,984.89
2019-02-02T07:40:22.277Z,984.91
2019-02-02T07:41:22.269Z,984.93
2019-02-02T07:42:22.263Z,984.88
2019-02-02T07:43:22.254Z,984.93
2019-02-02T07:44:22.246Z,984.95
2019-02-02T07:45:22.239Z,984.97
2019-02-02T07:46:22.231Z,984.93
2019-02-02T07:47:22.221Z,984.96
2019-02-02T07:48:22.215Z,984.96
2019-02-02T07:49:22.207Z,984.96
2019-02-02T07:50:22.199Z,984.98
2019-02-02T07:51:22.190Z,984.96
2019-02-02T07:52:22.183Z,984.99
2019-02-02T07:53:22.176Z,984.94
2019-02-02T07:54:22.171Z,985.00
2019-02-02T07:55:22.160Z,984.95
2019-02-02T07:56:22.152Z,984.98
2019-02-02T07:57:22.147Z,984.96
2019-02-02T07:58:22.138Z,984.99
2019-02-02T07:59:22.131Z,985.01
2019-02-02T08:00:22.123Z,985.04
2019-02-02T08:01:22.114Z,984.98
2019-02-02T08:02:22.107Z,985.02
2019-02-02T08:03:22.107Z,984.99
2019-02-02T08:04:22.091Z,985.06
2019-02-02T08:05:22.082Z,985.02
2019-02-02T08:06:22.078Z,985.04
2019-02-02T08:07:22.071Z,985.00
2019-02-02T08:08:22.059Z,985.04
2019-02-02T08:09:22.090Z,985.02
2019-02-02T08:10:22.046Z,985.05
2019-02-02T08:11:22.038Z,985.08
2019-02-02T08:12:22.030Z,985.05
2019-02-02T08:13:22.022Z,985.03
2019-02-02T08:14:22.015Z,985.04
2019-02-02T08:15:22.070Z,985.11
2019-02-02T08:16:22.001Z,985.13
2019-02-02T08:17:21.991Z,985.14
2019-02-02T08:18:21.984Z,985.09
2019-02-02T08:19:21.976Z,985.14
2019-02-02T08:20:21.968Z,985.16
2019-02-02T08:21:21.962Z,985.16
2019-02-02T08:22:21.954Z,985.18
2019-02-02T08:23:21.945Z,985.19
2019-02-02T08:24:21.938Z,985.17
2019-02-02T08:25:21.931Z,985.24
2019-02-02T08:26:22.073Z,985.26
2019-02-02T08:27:21.914Z,985.23
2019-02-02T08:28:21.968Z,985.23
2019-02-02T08:29:21.898Z,985.22
2019-02-02T08:30:21.892Z,985.25
2019-02-02T08:31:21.884Z,985.21
2019-02-02T08:32:21.876Z,985.21
2019-02-02T08:33:21.869Z,985.24
2019-02-02T08:34:21.865Z,985.25
2019-02-02T08:35:21.908Z,985.29
2019-02-02T08:36:21.848Z,985.32
2019-02-02T08:37:21.838Z,985.33
2019-02-02T08:38:21.835Z,985.32
2019-02-02T08:39:29.031Z,985.33
2019-02-02T08:40:21.818Z,985.38
2019-02-02T08:41:21.809Z,985.37
2019-02-02T08:42:21.800Z,985.41
2019-02-02T08:43:21.793Z,985.42
2019-02-02T08:44:21.784Z,985.46
2019-02-02T08:45:21.777Z,985.47
2019-02-02T08:46:21.770Z,985.49
2019-02-02T08:47:21.761Z,985.55
2019-02-02T08:48:21.754Z,985.55
2019-02-02T08:49:21.750Z,985.56
2019-02-02T08:50:21.737Z,985.59
2019-02-02T08:51:21.730Z,985.58
2019-02-02T08:52:21.722Z,985.60
2019-02-02T08:53:21.722Z,985.63
2019-02-02T08:54:21.709Z,985.63
2019-02-02T08:55:21.756Z,985.63
2019-02-02T08:56:21.736Z,985.62
2019-02-02T08:57:21.686Z,985.67
2019-02-02T08:58:21.677Z,985.65
2019-02-02T08:59:21.669Z,985.69
2019-02-02T09:00:21.662Z,985.71
2019-02-02T09:01:21.654Z,985.72
2019-02-02T09:02:21.646Z,985.75
2019-02-02T09:03:21.670Z,985.74
2019-02-02T09:04:21.670Z,985.78
2019-02-02T09:05:21.634Z,985.77
2019-02-02T09:06:21.618Z,985.77
2019-02-02T09:07:21.857Z,985.77
2019-02-02T09:08:21.662Z,985.82
2019-02-02T09:09:21.592Z,985.78
2019-02-02T09:10:21.585Z,985.79
2019-02-02T09:11:21.577Z,985.82
2019-02-02T09:12:21.570Z,985.78
2019-02-02T09:13:21.562Z,985.81
2019-02-02T09:14:21.554Z,985.83
2019-02-02T09:15:21.549Z,985.80
2019-02-02T09:16:21.540Z,985.81
2019-02-02T09:17:21.531Z,985.81
2019-02-02T09:18:21.523Z,985.83
2019-02-02T09:19:21.607Z,985.76
2019-02-02T09:20:21.508Z,985.78
2019-02-02T09:21:21.582Z,985.83
2019-02-02T09:22:21.492Z,985.79
2019-02-02T09:23:21.486Z,985.79
2019-02-02T09:24:21.476Z,985.80
2019-02-02T09:25:21.472Z,985.80
2019-02-02T09:26:21.464Z,985.83
2019-02-02T09:27:21.453Z,985.77
2019-02-02T09:28:21.453Z,985.79
2019-02-02T09:29:21.441Z,985.81
2019-02-02T09:30:21.433Z,985.76
2019-02-02T09:31:21.423Z,985.73
2019-02-02T09:32:21.415Z,985.77
2019-02-02T09:33:21.410Z,985.79
2019-02-02T09:34:21.404Z,985.77
2019-02-02T09:35:21.394Z,985.84
2019-02-02T09:36:21.386Z,985.82
2019-02-02T09:37:21.393Z,985.82
2019-02-02T09:38:21.372Z,985.88
2019-02-02T09:39:21.362Z,985.87
2019-02-02T09:40:21.355Z,985.93
2019-02-02T09:41:21.346Z,985.90
2019-02-02T09:42:21.339Z,985.96
2019-02-02T09:43:21.333Z,985.97
2019-02-02T09:44:21.323Z,986.00
2019-02-02T09:45:21.318Z,985.97
2019-02-02T09:46:21.310Z,985.97
2019-02-02T09:47:21.304Z,985.98
2019-02-02T09:48:21.595Z,986.02
2019-02-02T09:49:21.290Z,986.04
2019-02-02T09:50:21.278Z,986.04
2019-02-02T09:51:21.271Z,986.04
2019-02-02T09:52:21.263Z,986.09
2019-02-02T09:53:21.256Z,986.11
2019-02-02T09:54:26.704Z,986.16
2019-02-02T09:55:21.361Z,986.13
2019-02-02T09:56:21.232Z,986.13
2019-02-02T09:57:21.229Z,986.16
2019-02-02T09:58:21.219Z,986.14
2019-02-02T09:59:21.210Z,986.13
2019-02-02T10:00:21.204Z,986.15
2019-02-02T10:01:27.912Z,986.17
2019-02-02T10:02:21.189Z,986.16
2019-02-02T10:03:21.181Z,986.21
2019-02-02T10:04:21.174Z,986.20
2019-02-02T10:05:21.167Z,986.22
2019-02-02T10:06:21.159Z,986.22
2019-02-02T10:07:21.150Z,986.26
2019-02-02T10:08:21.143Z,986.23
2019-02-02T10:09:21.137Z,986.24
2019-02-02T10:10:21.129Z,986.27
2019-02-02T10:11:21.121Z,986.31
2019-02-02T10:12:21.268Z,986.30
2019-02-02T10:13:21.108Z,986.32
2019-02-02T10:14:21.100Z,986.29
2019-02-02T10:15:21.093Z,986.36
2019-02-02T10:16:21.085Z,986.37
2019-02-02T10:17:21.078Z,986.35
2019-02-02T10:18:21.072Z,986.41
2019-02-02T10:19:21.063Z,986.39
2019-02-02T10:20:21.057Z,986.41
2019-02-02T10:21:21.050Z,986.49
2019-02-02T10:22:21.041Z,986.45
2019-02-02T10:23:21.035Z,986.50
2019-02-02T10:24:21.033Z,986.52
2019-02-02T10:25:21.021Z,986.49
2019-02-02T10:26:21.014Z,986.52
2019-02-02T10:27:21.005Z,986.57
2019-02-02T10:28:21.010Z,986.64
2019-02-02T10:29:20.991Z,986.60
2019-02-02T10:30:22.744Z,986.61
2019-02-02T10:31:20.977Z,986.65
2019-02-02T10:32:20.971Z,986.64
2019-02-02T10:33:20.965Z,986.65
2019-02-02T10:34:20.959Z,986.65
2019-02-02T10:35:20.948Z,986.73
2019-02-02T10:36:20.943Z,986.70
2019-02-02T10:37:20.935Z,986.66
2019-02-02T10:38:20.930Z,986.72
2019-02-02T10:39:20.920Z,986.69
2019-02-02T10:40:20.912Z,986.77
2019-02-02T10:41:20.907Z,986.77
2019-02-02T10:42:20.900Z,986.78
2019-02-02T10:43:20.891Z,986.76
2019-02-02T10:44:20.904Z,986.77
2019-02-02T10:45:20.879Z,986.74
2019-02-02T10:46:20.870Z,986.78
2019-02-02T10:47:20.864Z,986.75
2019-02-02T10:48:20.860Z,986.76
2019-02-02T10:49:20.850Z,986.72
2019-02-02T10:50:20.844Z,986.78
2019-02-02T10:51:20.834Z,986.82
2019-02-02T10:52:20.830Z,986.82
2019-02-02T10:53:20.820Z,986.81
2019-02-02T10:54:20.814Z,986.81
2019-02-02T10:55:20.805Z,986.87
2019-02-02T10:56:20.799Z,986.85
2019-02-02T10:57:20.792Z,986.87
2019-02-02T10:58:20.785Z,986.87
2019-02-02T10:59:20.777Z,986.92
2019-02-02T11:00:20.772Z,986.93
2019-02-02T11:01:20.763Z,986.91
2019-02-02T11:02:20.757Z,986.96
2019-02-02T11:03:20.749Z,986.93
2019-02-02T11:04:20.945Z,986.96
2019-02-02T11:05:20.787Z,986.93
2019-02-02T11:06:20.729Z,986.97
2019-02-02T11:07:20.910Z,987.02
2019-02-02T11:08:20.759Z,986.98
2019-02-02T11:09:20.797Z,987.01
2019-02-02T11:10:20.715Z,987.09
2019-02-02T11:11:20.701Z,987.08
2019-02-02T11:12:20.824Z,987.06
2019-02-02T11:13:20.729Z,987.08
2019-02-02T11:14:20.789Z,987.14
2019-02-02T11:15:20.747Z,987.12
2019-02-02T11:16:20.655Z,987.18
2019-02-02T11:17:20.709Z,987.17
2019-02-02T11:18:20.733Z,987.24
2019-02-02T11:19:20.634Z,987.25
2019-02-02T11:20:20.671Z,987.26
2019-02-02T11:21:20.626Z,987.24
2019-02-02T11:22:20.654Z,987.26
2019-02-02T11:23:20.645Z,987.28
2019-02-02T11:24:20.605Z,987.30
2019-02-02T11:25:20.709Z,987.32
2019-02-02T11:26:20.582Z,987.30
2019-02-02T11:27:20.624Z,987.28
2019-02-02T11:28:20.615Z,987.30
2019-02-02T11:29:20.560Z,987.30
2019-02-02T11:30:20.555Z,987.37
2019-02-02T11:31:20.544Z,987.35
2019-02-02T11:32:20.539Z,987.30
2019-02-02T11:33:20.535Z,987.28
2019-02-02T11:34:20.523Z,987.26
2019-02-02T11:35:20.518Z,987.30
2019-02-02T11:36:20.509Z,987.30
2019-02-02T11:37:20.502Z,987.30
2019-02-02T11:38:20.499Z,987.25
2019-02-02T11:39:20.488Z,987.28
2019-02-02T11:40:20.480Z,987.28
2019-02-02T11:41:20.472Z,987.26
2019-02-02T11:42:20.466Z,987.30
2019-02-02T11:43:20.457Z,987.35
2019-02-02T11:44:20.450Z,987.33
2019-02-02T11:45:20.443Z,987.35
2019-02-02T11:46:20.437Z,987.41
2019-02-02T11:47:20.429Z,987.41
2019-02-02T11:48:20.422Z,987.46
2019-02-02T11:49:20.594Z,987.48
2019-02-02T11:50:20.409Z,987.47
2019-02-02T11:51:20.399Z,987.52
2019-02-02T11:52:23.256Z,987.49
2019-02-02T11:53:20.388Z,987.53
2019-02-02T11:54:20.378Z,987.55
2019-02-02T11:55:20.370Z,987.60
2019-02-02T11:56:20.361Z,987.59
2019-02-02T11:57:20.356Z,987.63
2019-02-02T11:58:20.350Z,987.65
2019-02-02T11:59:20.340Z,987.65
2019-02-02T12:00:20.380Z,987.70
2019-02-02T12:01:20.327Z,987.68
2019-02-02T12:02:20.319Z,987.67
2019-02-02T12:03:20.313Z,987.76
2019-02-02T12:04:20.305Z,987.75
2019-02-02T12:05:20.296Z,987.76
2019-02-02T12:06:20.289Z,987.77
2019-02-02T12:07:20.284Z,987.84
2019-02-02T12:08:20.276Z,987.83
2019-02-02T12:09:20.267Z,987.82
2019-02-02T12:10:20.263Z,987.85
2019-02-02T12:11:20.252Z,987.84
2019-02-02T12:12:20.246Z,987.82
2019-02-02T12:13:20.239Z,987.89
2019-02-02T12:14:20.234Z,987.89
2019-02-02T12:15:20.224Z,987.90
2019-02-02T12:16:20.217Z,987.92
2019-02-02T12:17:20.212Z,987.92
2019-02-02T12:18:20.203Z,987.93
2019-02-02T12:19:20.195Z,987.94
2019-02-02T12:20:20.188Z,987.99
2019-02-02T12:21:20.180Z,987.95
2019-02-02T12:22:20.173Z,988.00
2019-02-02T12:23:20.168Z,988.03
2019-02-02T12:24:20.159Z,988.05
2019-02-02T12:25:20.151Z,988.09
2019-02-02T12:26:20.145Z,988.06
2019-02-02T12:27:20.135Z,988.10
2019-02-02T12:28:20.131Z,988.12